»·PEaware :: N208GG KSNA-KSNA

N208GG :: KSNA-KSNA

FLIGHT INFORMATION

Flight Status: Arrived
Operator: Privately registered:
United States
More flights under this callsign
Pilot: Hunter M. (19355)
Aircraft: CESSNA 172 SKYHAWK
(C172)
More flights by this aircraft type
Origin: KSNA John Wayne-Orange Co
United States
Destination: KSNA John Wayne-Orange Co
United States
More flights between these airports :: More routes between these airports
Route: +SLI
File this flight plan on PilotEdge
Remarks: Practice approaches
Altitude:
(Current/Filed)
3,000ft
Speed:
(Current/Filed)
118kts
Departed: 05-Dec-19 07:14 PM
Arrived: 05-Dec-19 07:58 PM
Distance/Time
Traveled:
0nm/0:44
Distance/Time
To Go:
Arrived

Flight Plot

Page will automatically refresh every two minutes.


Map Options




Map Legend


Flown Route
Filed Route
Departure Airport
Arrival Airport
Navaid (VOR, NDB)
Fix

Horizontal Profiles

Position Reports

Time Latitude Longitude Heading Altitude Ground
Speed
05-Dec-19 18:41 33.667442 -117.870774 37 59ft 0kts
05-Dec-19 18:42 33.667442 -117.870774 37 59ft 0kts
05-Dec-19 18:43 33.667442 -117.870774 37 59ft 0kts
05-Dec-19 18:44 33.667442 -117.870774 37 59ft 0kts
05-Dec-19 18:45 33.667442 -117.870774 37 59ft 0kts
05-Dec-19 18:46 33.667442 -117.870774 37 59ft 0kts
05-Dec-19 18:47 33.667442 -117.870774 37 59ft 0kts
05-Dec-19 18:48 33.667442 -117.870774 37 59ft 0kts
05-Dec-19 18:49 33.667442 -117.870774 37 59ft 0kts
05-Dec-19 18:50 33.667442 -117.870774 37 59ft 0kts
05-Dec-19 18:51 33.667442 -117.870774 37 59ft 0kts
05-Dec-19 18:52 33.667442 -117.870774 37 59ft 0kts
05-Dec-19 18:53 33.667442 -117.870774 37 59ft 0kts
05-Dec-19 18:54 33.667442 -117.870774 37 59ft 0kts
05-Dec-19 18:55 33.667443 -117.870774 37 59ft 0kts
05-Dec-19 18:56 33.667443 -117.870774 37 59ft 0kts
05-Dec-19 18:57 33.667444 -117.870773 37 59ft 0kts
05-Dec-19 18:58 33.667444 -117.870773 37 59ft 0kts
05-Dec-19 18:59 33.667445 -117.870772 37 59ft 0kts
05-Dec-19 19:00 33.667445 -117.870772 37 59ft 0kts
05-Dec-19 19:01 33.667445 -117.870772 37 59ft 0kts
05-Dec-19 19:02 33.667446 -117.870771 37 59ft 0kts
05-Dec-19 19:03 33.667446 -117.870771 37 59ft 0kts
05-Dec-19 19:04 33.667348 -117.871152 309 59ft 7kts
05-Dec-19 19:05 33.669469 -117.870954 37 59ft 14kts
05-Dec-19 19:06 33.672152 -117.868296 41 59ft 10kts
05-Dec-19 19:07 33.674972 -117.866492 26 59ft 15kts
05-Dec-19 19:08 33.678443 -117.864430 26 59ft 8kts
05-Dec-19 19:09 33.679662 -117.863808 337 59ft 0kts
05-Dec-19 19:10 33.679662 -117.863808 337 59ft 0kts
05-Dec-19 19:11 33.679663 -117.863808 337 59ft 0kts
05-Dec-19 19:12 33.679884 -117.864257 253 59ft 7kts
05-Dec-19 19:13 33.668592 -117.871753 211 384ft 78kts
05-Dec-19 19:14 33.673542 -117.887267 342 1119ft 90kts
05-Dec-19 19:15 33.698555 -117.896630 342 1749ft 95kts
05-Dec-19 19:16 33.724019 -117.906217 342 2344ft 95kts
05-Dec-19 19:17 33.746843 -117.894432 38 2953ft 92kts
05-Dec-19 19:18 33.766683 -117.874216 40 3499ft 97kts
05-Dec-19 19:19 33.790020 -117.849976 41 3504ft 117kts
05-Dec-19 19:20 33.814618 -117.824239 41 3499ft 117kts
05-Dec-19 19:21 33.838778 -117.798854 41 3482ft 107kts
05-Dec-19 19:22 33.859857 -117.776818 41 3497ft 97kts
05-Dec-19 19:23 33.880198 -117.755554 41 3500ft 97kts
05-Dec-19 19:24 33.873289 -117.743584 205 3504ft 96kts
05-Dec-19 19:25 33.851934 -117.756841 207 2891ft 68kts
05-Dec-19 19:26 33.835214 -117.767497 207 2926ft 72kts
05-Dec-19 19:27 33.816433 -117.779435 207 2898ft 77kts
05-Dec-19 19:28 33.797527 -117.791413 207 2767ft 81kts
05-Dec-19 19:29 33.776192 -117.804924 207 2055ft 88kts
05-Dec-19 19:30 33.755292 -117.818182 207 1537ft 84kts
05-Dec-19 19:31 33.735563 -117.830703 207 1237ft 81kts
05-Dec-19 19:32 33.715340 -117.843514 207 850ft 82kts
05-Dec-19 19:33 33.695275 -117.855953 207 361ft 78kts
05-Dec-19 19:34 33.676122 -117.868638 209 206ft 82kts
05-Dec-19 19:35 33.659293 -117.889137 301 576ft 111kts
05-Dec-19 19:36 33.686271 -117.900892 343 1181ft 100kts
05-Dec-19 19:37 33.710847 -117.909541 343 1998ft 86kts
05-Dec-19 19:38 33.734498 -117.913258 11 2699ft 88kts
05-Dec-19 19:39 33.759528 -117.907120 13 3326ft 92kts
05-Dec-19 19:40 33.785847 -117.893890 23 3514ft 115kts
05-Dec-19 19:41 33.815892 -117.878242 23 3499ft 118kts
05-Dec-19 19:42 33.845172 -117.863262 23 3483ft 104kts
05-Dec-19 19:43 33.870376 -117.850330 23 3497ft 95kts
05-Dec-19 19:44 33.881128 -117.826502 92 3509ft 95kts
05-Dec-19 19:45 33.879810 -117.794327 92 3499ft 96kts
05-Dec-19 19:46 33.876724 -117.762957 128 3561ft 89kts
05-Dec-19 19:47 33.851559 -117.758970 180 3580ft 92kts
05-Dec-19 19:48 33.828761 -117.772081 211 3329ft 87kts
05-Dec-19 19:49 33.810062 -117.784336 205 2666ft 71kts
05-Dec-19 19:50 33.790895 -117.794965 206 2220ft 75kts
05-Dec-19 19:51 33.773346 -117.807113 209 1962ft 72kts
05-Dec-19 19:52 33.755508 -117.818995 207 1496ft 73kts
05-Dec-19 19:53 33.738147 -117.829747 209 1356ft 68kts
05-Dec-19 19:54 33.719558 -117.841422 205 965ft 75kts
05-Dec-19 19:55 33.700879 -117.852283 211 460ft 70kts
05-Dec-19 19:56 33.683748 -117.863717 205 159ft 72kts
05-Dec-19 19:57 33.675584 -117.869514 316 59ft 5kts
05-Dec-19 19:58 33.677107 -117.871095 20 59ft 0kts

Navigation Log

Ident Type
Flight plan parsing failed, navigation log unavailable